sensor_id;sensor_type;location;lat;lon;timestamp;P1;durP1;ratioP1;P2;durP2;ratioP2
10191;SDS011;17580;50.850;4.504;2022-07-04T00:01:28;1.37;;;1.27;;
10191;SDS011;17580;50.850;4.504;2022-07-04T00:03:55;3.07;;;1.23;;
10191;SDS011;17580;50.850;4.504;2022-07-04T00:06:23;1.10;;;1.10;;
10191;SDS011;17580;50.850;4.504;2022-07-04T00:08:50;1.40;;;1.20;;
10191;SDS011;17580;50.850;4.504;2022-07-04T00:11:17;1.03;;;1.00;;
10191;SDS011;17580;50.850;4.504;2022-07-04T00:13:43;1.33;;;1.20;;
10191;SDS011;17580;50.850;4.504;2022-07-04T00:16:12;1.00;;;1.00;;
10191;SDS011;17580;50.850;4.504;2022-07-04T00:18:39;1.30;;;1.17;;
10191;SDS011;17580;50.850;4.504;2022-07-04T00:21:06;2.13;;;1.20;;
10191;SDS011;17580;50.850;4.504;2022-07-04T00:23:33;1.37;;;1.20;;
10191;SDS011;17580;50.850;4.504;2022-07-04T00:25:59;1.70;;;1.17;;
10191;SDS011;17580;50.850;4.504;2022-07-04T00:28:26;1.23;;;1.23;;
10191;SDS011;17580;50.850;4.504;2022-07-04T00:30:53;2.93;;;1.30;;
10191;SDS011;17580;50.850;4.504;2022-07-04T00:33:22;1.03;;;1.00;;
10191;SDS011;17580;50.850;4.504;2022-07-04T00:35:49;1.20;;;1.20;;
10191;SDS011;17580;50.850;4.504;2022-07-04T00:38:16;1.30;;;1.20;;
10191;SDS011;17580;50.850;4.504;2022-07-04T00:40:43;2.00;;;1.37;;
10191;SDS011;17580;50.850;4.504;2022-07-04T00:43:10;1.40;;;1.30;;
10191;SDS011;17580;50.850;4.504;2022-07-04T00:45:37;1.37;;;1.23;;
10191;SDS011;17580;50.850;4.504;2022-07-04T00:48:04;2.33;;;1.30;;
10191;SDS011;17580;50.850;4.504;2022-07-04T00:50:32;1.53;;;1.30;;
10191;SDS011;17580;50.850;4.504;2022-07-04T00:52:59;1.13;;;1.13;;
10191;SDS011;17580;50.850;4.504;2022-07-04T00:55:27;1.43;;;1.30;;
10191;SDS011;17580;50.850;4.504;2022-07-04T00:57:54;1.53;;;1.43;;
10191;SDS011;17580;50.850;4.504;2022-07-04T01:00:21;1.53;;;1.43;;
10191;SDS011;17580;50.850;4.504;2022-07-04T01:02:48;1.20;;;1.20;;
10191;SDS011;17580;50.850;4.504;2022-07-04T01:05:15;1.20;;;1.20;;
10191;SDS011;17580;50.850;4.504;2022-07-04T01:07:43;1.20;;;1.20;;
10191;SDS011;17580;50.850;4.504;2022-07-04T01:10:10;1.57;;;1.17;;
10191;SDS011;17580;50.850;4.504;2022-07-04T01:12:38;2.87;;;1.20;;
10191;SDS011;17580;50.850;4.504;2022-07-04T01:15:05;1.20;;;1.20;;
10191;SDS011;17580;50.850;4.504;2022-07-04T01:17:33;1.47;;;1.20;;
10191;SDS011;17580;50.850;4.504;2022-07-04T01:20:00;3.63;;;1.40;;
10191;SDS011;17580;50.850;4.504;2022-07-04T01:22:29;1.97;;;1.30;;
10191;SDS011;17580;50.850;4.504;2022-07-04T01:24:56;1.27;;;1.17;;
10191;SDS011;17580;50.850;4.504;2022-07-04T01:27:22;1.40;;;1.33;;
10191;SDS011;17580;50.850;4.504;2022-07-04T01:29:49;1.50;;;1.40;;
10191;SDS011;17580;50.850;4.504;2022-07-04T01:32:16;1.80;;;1.20;;
10191;SDS011;17580;50.850;4.504;2022-07-04T01:34:44;1.87;;;1.10;;
10191;SDS011;17580;50.850;4.504;2022-07-04T01:37:11;2.17;;;1.30;;
10191;SDS011;17580;50.850;4.504;2022-07-04T01:39:39;1.27;;;1.17;;
10191;SDS011;17580;50.850;4.504;2022-07-04T01:42:06;2.67;;;1.30;;
10191;SDS011;17580;50.850;4.504;2022-07-04T01:44:33;2.47;;;1.60;;
10191;SDS011;17580;50.850;4.504;2022-07-04T01:47:00;1.20;;;1.20;;
10191;SDS011;17580;50.850;4.504;2022-07-04T01:49:28;1.23;;;1.23;;
10191;SDS011;17580;50.850;4.504;2022-07-04T01:51:55;1.60;;;1.50;;
10191;SDS011;17580;50.850;4.504;2022-07-04T01:54:22;1.60;;;1.47;;
10191;SDS011;17580;50.850;4.504;2022-07-04T01:56:51;1.00;;;1.00;;
10191;SDS011;17580;50.850;4.504;2022-07-04T01:59:18;1.50;;;1.00;;
10191;SDS011;17580;50.850;4.504;2022-07-04T02:02:05;1.00;;;1.00;;
10191;SDS011;17580;50.850;4.504;2022-07-04T02:04:31;1.33;;;1.23;;
10191;SDS011;17580;50.850;4.504;2022-07-04T02:06:59;2.00;;;1.33;;
10191;SDS011;17580;50.850;4.504;2022-07-04T02:09:26;3.50;;;1.50;;
10191;SDS011;17580;50.850;4.504;2022-07-04T02:11:57;1.20;;;1.20;;
10191;SDS011;17580;50.850;4.504;2022-07-04T02:14:41;2.07;;;1.27;;
10191;SDS011;17580;50.850;4.504;2022-07-04T02:17:08;1.20;;;1.20;;
10191;SDS011;17580;50.850;4.504;2022-07-04T02:19:36;1.17;;;1.13;;
10191;SDS011;17580;50.850;4.504;2022-07-04T02:22:03;1.67;;;1.30;;
10191;SDS011;17580;50.850;4.504;2022-07-04T02:24:30;1.27;;;1.17;;
10191;SDS011;17580;50.850;4.504;2022-07-04T02:26:59;2.03;;;1.43;;
10191;SDS011;17580;50.850;4.504;2022-07-04T02:29:26;1.57;;;1.40;;
10191;SDS011;17580;50.850;4.504;2022-07-04T02:31:53;1.10;;;1.10;;
10191;SDS011;17580;50.850;4.504;2022-07-04T02:34:20;1.40;;;1.13;;
10191;SDS011;17580;50.850;4.504;2022-07-04T02:36:47;1.20;;;1.10;;
10191;SDS011;17580;50.850;4.504;2022-07-04T02:39:14;1.40;;;1.30;;
10191;SDS011;17580;50.850;4.504;2022-07-04T02:41:41;1.53;;;1.37;;
10191;SDS011;17580;50.850;4.504;2022-07-04T02:44:10;1.73;;;1.40;;
10191;SDS011;17580;50.850;4.504;2022-07-04T02:46:37;1.50;;;1.40;;
10191;SDS011;17580;50.850;4.504;2022-07-04T02:49:03;1.10;;;1.10;;
10191;SDS011;17580;50.850;4.504;2022-07-04T02:51:30;1.30;;;1.20;;
10191;SDS011;17580;50.850;4.504;2022-07-04T02:53:58;1.50;;;1.40;;
10191;SDS011;17580;50.850;4.504;2022-07-04T02:56:25;1.20;;;1.20;;
10191;SDS011;17580;50.850;4.504;2022-07-04T02:58:52;2.00;;;1.07;;
10191;SDS011;17580;50.850;4.504;2022-07-04T03:01:20;1.53;;;1.30;;
10191;SDS011;17580;50.850;4.504;2022-07-04T03:03:47;1.20;;;1.10;;
10191;SDS011;17580;50.850;4.504;2022-07-04T03:06:14;2.30;;;1.30;;
10191;SDS011;17580;50.850;4.504;2022-07-04T03:08:42;2.63;;;1.20;;
10191;SDS011;17580;50.850;4.504;2022-07-04T03:11:09;1.10;;;1.10;;
10191;SDS011;17580;50.850;4.504;2022-07-04T03:13:36;1.30;;;1.20;;
10191;SDS011;17580;50.850;4.504;2022-07-04T03:16:05;1.77;;;1.20;;
10191;SDS011;17580;50.850;4.504;2022-07-04T03:18:33;1.30;;;1.23;;
10191;SDS011;17580;50.850;4.504;2022-07-04T03:21:00;1.23;;;1.13;;
10191;SDS011;17580;50.850;4.504;2022-07-04T03:23:29;1.20;;;1.10;;
10191;SDS011;17580;50.850;4.504;2022-07-04T03:25:56;1.50;;;1.20;;
10191;SDS011;17580;50.850;4.504;2022-07-04T03:28:23;1.23;;;1.20;;
10191;SDS011;17580;50.850;4.504;2022-07-04T03:30:50;1.40;;;1.30;;
10191;SDS011;17580;50.850;4.504;2022-07-04T03:33:17;1.13;;;1.13;;
10191;SDS011;17580;50.850;4.504;2022-07-04T03:35:45;2.70;;;1.47;;
10191;SDS011;17580;50.850;4.504;2022-07-04T03:38:12;1.00;;;1.00;;
10191;SDS011;17580;50.850;4.504;2022-07-04T03:40:39;1.50;;;1.40;;
10191;SDS011;17580;50.850;4.504;2022-07-04T03:43:06;1.17;;;1.17;;
10191;SDS011;17580;50.850;4.504;2022-07-04T03:45:33;1.73;;;1.30;;
10191;SDS011;17580;50.850;4.504;2022-07-04T03:48:00;1.83;;;1.37;;
10191;SDS011;17580;50.850;4.504;2022-07-04T03:50:28;1.03;;;1.03;;
10191;SDS011;17580;50.850;4.504;2022-07-04T03:52:57;1.20;;;1.10;;
10191;SDS011;17580;50.850;4.504;2022-07-04T03:55:24;1.27;;;1.27;;
10191;SDS011;17580;50.850;4.504;2022-07-04T03:57:51;0.97;;;0.97;;
10191;SDS011;17580;50.850;4.504;2022-07-04T04:00:18;1.30;;;1.20;;
10191;SDS011;17580;50.850;4.504;2022-07-04T04:02:45;1.63;;;1.30;;
10191;SDS011;17580;50.850;4.504;2022-07-04T04:05:11;1.30;;;1.17;;
10191;SDS011;17580;50.850;4.504;2022-07-04T04:07:57;1.50;;;1.40;;
10191;SDS011;17580;50.850;4.504;2022-07-04T04:10:25;1.77;;;1.40;;
10191;SDS011;17580;50.850;4.504;2022-07-04T04:12:53;1.40;;;1.30;;
10191;SDS011;17580;50.850;4.504;2022-07-04T04:15:20;1.33;;;1.20;;
10191;SDS011;17580;50.850;4.504;2022-07-04T04:17:47;1.67;;;1.30;;
10191;SDS011;17580;50.850;4.504;2022-07-04T04:20:15;1.00;;;1.00;;
10191;SDS011;17580;50.850;4.504;2022-07-04T04:22:41;1.00;;;1.00;;
10191;SDS011;17580;50.850;4.504;2022-07-04T04:25:10;1.40;;;1.30;;
10191;SDS011;17580;50.850;4.504;2022-07-04T04:27:37;1.00;;;1.00;;
10191;SDS011;17580;50.850;4.504;2022-07-04T04:30:04;1.10;;;1.00;;
10191;SDS011;17580;50.850;4.504;2022-07-04T04:32:32;1.80;;;1.30;;
10191;SDS011;17580;50.850;4.504;2022-07-04T04:34:59;3.20;;;1.43;;
10191;SDS011;17580;50.850;4.504;2022-07-04T04:37:26;1.67;;;1.20;;
10191;SDS011;17580;50.850;4.504;2022-07-04T04:39:53;2.97;;;1.10;;
10191;SDS011;17580;50.850;4.504;2022-07-04T04:42:21;1.03;;;1.03;;
10191;SDS011;17580;50.850;4.504;2022-07-04T04:44:48;1.47;;;1.10;;
10191;SDS011;17580;50.850;4.504;2022-07-04T04:47:15;2.50;;;1.43;;
10191;SDS011;17580;50.850;4.504;2022-07-04T04:49:42;2.47;;;1.10;;
10191;SDS011;17580;50.850;4.504;2022-07-04T04:52:09;1.30;;;1.20;;
10191;SDS011;17580;50.850;4.504;2022-07-04T04:54:36;1.53;;;1.20;;
10191;SDS011;17580;50.850;4.504;2022-07-04T04:57:03;2.13;;;1.30;;
10191;SDS011;17580;50.850;4.504;2022-07-04T04:59:32;1.60;;;1.10;;
10191;SDS011;17580;50.850;4.504;2022-07-04T05:01:59;3.80;;;1.10;;
10191;SDS011;17580;50.850;4.504;2022-07-04T05:04:26;2.03;;;1.20;;
10191;SDS011;17580;50.850;4.504;2022-07-04T05:06:54;1.30;;;1.20;;
10191;SDS011;17580;50.850;4.504;2022-07-04T05:09:21;2.42;;;1.30;;
10191;SDS011;17580;50.850;4.504;2022-07-04T05:11:48;0.83;;;0.80;;
10191;SDS011;17580;50.850;4.504;2022-07-04T05:14:15;1.73;;;1.40;;
10191;SDS011;17580;50.850;4.504;2022-07-04T05:16:43;1.83;;;1.17;;
10191;SDS011;17580;50.850;4.504;2022-07-04T05:19:10;1.80;;;1.00;;
10191;SDS011;17580;50.850;4.504;2022-07-04T05:21:37;1.87;;;1.20;;
10191;SDS011;17580;50.850;4.504;2022-07-04T05:24:04;1.80;;;1.00;;
10191;SDS011;17580;50.850;4.504;2022-07-04T05:26:31;1.30;;;1.20;;
10191;SDS011;17580;50.850;4.504;2022-07-04T05:28:58;1.60;;;0.90;;
10191;SDS011;17580;50.850;4.504;2022-07-04T05:31:25;1.73;;;1.50;;
10191;SDS011;17580;50.850;4.504;2022-07-04T05:33:54;1.23;;;1.13;;
10191;SDS011;17580;50.850;4.504;2022-07-04T05:36:21;1.83;;;1.10;;
10191;SDS011;17580;50.850;4.504;2022-07-04T05:38:49;0.90;;;0.90;;
10191;SDS011;17580;50.850;4.504;2022-07-04T05:41:15;2.60;;;1.30;;
10191;SDS011;17580;50.850;4.504;2022-07-04T05:43:42;2.30;;;1.30;;
10191;SDS011;17580;50.850;4.504;2022-07-04T05:46:09;1.93;;;1.20;;
10191;SDS011;17580;50.850;4.504;2022-07-04T05:48:36;1.30;;;1.20;;
10191;SDS011;17580;50.850;4.504;2022-07-04T05:51:05;1.97;;;1.20;;
10191;SDS011;17580;50.850;4.504;2022-07-04T05:53:32;1.37;;;1.20;;
10191;SDS011;17580;50.850;4.504;2022-07-04T05:55:59;2.33;;;1.03;;
10191;SDS011;17580;50.850;4.504;2022-07-04T05:58:26;3.90;;;1.30;;
10191;SDS011;17580;50.850;4.504;2022-07-04T06:00:53;1.37;;;1.20;;
10191;SDS011;17580;50.850;4.504;2022-07-04T06:03:20;1.00;;;0.90;;
10191;SDS011;17580;50.850;4.504;2022-07-04T06:05:47;1.63;;;1.03;;
10191;SDS011;17580;50.850;4.504;2022-07-04T06:08:16;1.93;;;0.90;;
10191;SDS011;17580;50.850;4.504;2022-07-04T06:10:45;3.13;;;1.13;;
10191;SDS011;17580;50.850;4.504;2022-07-04T06:13:12;1.00;;;1.00;;
10191;SDS011;17580;50.850;4.504;2022-07-04T06:15:39;2.43;;;1.40;;
10191;SDS011;17580;50.850;4.504;2022-07-04T06:18:06;1.67;;;1.07;;
10191;SDS011;17580;50.850;4.504;2022-07-04T06:20:33;2.07;;;1.60;;
10191;SDS011;17580;50.850;4.504;2022-07-04T06:23:00;1.10;;;0.90;;
10191;SDS011;17580;50.850;4.504;2022-07-04T06:25:30;1.33;;;0.93;;
10191;SDS011;17580;50.850;4.504;2022-07-04T06:27:57;0.83;;;0.83;;
10191;SDS011;17580;50.850;4.504;2022-07-04T06:30:24;1.37;;;1.17;;
10191;SDS011;17580;50.850;4.504;2022-07-04T06:32:51;2.60;;;1.37;;
10191;SDS011;17580;50.850;4.504;2022-07-04T06:35:20;0.90;;;0.90;;
10191;SDS011;17580;50.850;4.504;2022-07-04T06:38:05;0.90;;;0.90;;
10191;SDS011;17580;50.850;4.504;2022-07-04T06:40:35;1.10;;;1.00;;
10191;SDS011;17580;50.850;4.504;2022-07-04T06:43:02;2.67;;;1.07;;
10191;SDS011;17580;50.850;4.504;2022-07-04T06:45:29;1.73;;;1.07;;
10191;SDS011;17580;50.850;4.504;2022-07-04T06:47:58;1.60;;;1.50;;
10191;SDS011;17580;50.850;4.504;2022-07-04T06:50:25;1.27;;;1.20;;
10191;SDS011;17580;50.850;4.504;2022-07-04T06:52:52;1.90;;;1.17;;
10191;SDS011;17580;50.850;4.504;2022-07-04T06:55:19;2.10;;;1.20;;
10191;SDS011;17580;50.850;4.504;2022-07-04T06:57:48;1.53;;;1.10;;
10191;SDS011;17580;50.850;4.504;2022-07-04T07:00:15;1.00;;;1.00;;
10191;SDS011;17580;50.850;4.504;2022-07-04T07:02:42;2.50;;;1.60;;
10191;SDS011;17580;50.850;4.504;2022-07-04T07:05:09;2.87;;;1.97;;
10191;SDS011;17580;50.850;4.504;2022-07-04T07:07:36;2.80;;;1.90;;
10191;SDS011;17580;50.850;4.504;2022-07-04T07:10:04;2.37;;;1.77;;
10191;SDS011;17580;50.850;4.504;2022-07-04T07:12:32;3.33;;;1.80;;
10191;SDS011;17580;50.850;4.504;2022-07-04T07:15:01;2.30;;;2.20;;
10191;SDS011;17580;50.850;4.504;2022-07-04T07:17:28;4.47;;;2.10;;
10191;SDS011;17580;50.850;4.504;2022-07-04T07:19:55;4.20;;;1.37;;
10191;SDS011;17580;50.850;4.504;2022-07-04T07:22:22;1.60;;;1.50;;
10191;SDS011;17580;50.850;4.504;2022-07-04T07:24:49;2.87;;;1.60;;
10191;SDS011;17580;50.850;4.504;2022-07-04T07:27:16;1.77;;;1.50;;
10191;SDS011;17580;50.850;4.504;2022-07-04T07:29:43;3.23;;;1.73;;
10191;SDS011;17580;50.850;4.504;2022-07-04T07:32:12;1.60;;;1.50;;
10191;SDS011;17580;50.850;4.504;2022-07-04T07:34:39;1.13;;;1.13;;
10191;SDS011;17580;50.850;4.504;2022-07-04T07:37:06;1.77;;;1.37;;
10191;SDS011;17580;50.850;4.504;2022-07-04T07:39:33;2.27;;;1.30;;
10191;SDS011;17580;50.850;4.504;2022-07-04T07:42:00;2.43;;;1.20;;
10191;SDS011;17580;50.850;4.504;2022-07-04T07:44:27;1.90;;;1.40;;
10191;SDS011;17580;50.850;4.504;2022-07-04T07:46:54;1.97;;;1.40;;
10191;SDS011;17580;50.850;4.504;2022-07-04T07:49:23;1.30;;;1.13;;
10191;SDS011;17580;50.850;4.504;2022-07-04T07:51:49;0.97;;;0.97;;
10191;SDS011;17580;50.850;4.504;2022-07-04T07:54:16;1.27;;;1.03;;
10191;SDS011;17580;50.850;4.504;2022-07-04T07:56:43;1.00;;;1.00;;
10191;SDS011;17580;50.850;4.504;2022-07-04T07:59:10;1.20;;;0.97;;
10191;SDS011;17580;50.850;4.504;2022-07-04T08:01:37;2.13;;;1.00;;
10191;SDS011;17580;50.850;4.504;2022-07-04T08:04:04;1.07;;;0.90;;
10191;SDS011;17580;50.850;4.504;2022-07-04T08:06:50;1.67;;;0.90;;
10191;SDS011;17580;50.850;4.504;2022-07-04T08:09:17;2.20;;;1.10;;
10191;SDS011;17580;50.850;4.504;2022-07-04T08:11:44;2.53;;;1.00;;
10191;SDS011;17580;50.850;4.504;2022-07-04T08:14:11;0.97;;;0.90;;
10191;SDS011;17580;50.850;4.504;2022-07-04T08:16:38;0.97;;;0.90;;
10191;SDS011;17580;50.850;4.504;2022-07-04T08:19:06;2.33;;;1.00;;
10191;SDS011;17580;50.850;4.504;2022-07-04T08:21:33;1.10;;;1.00;;
10191;SDS011;17580;50.850;4.504;2022-07-04T08:24:01;1.23;;;1.13;;
10191;SDS011;17580;50.850;4.504;2022-07-04T08:26:29;1.00;;;1.00;;
10191;SDS011;17580;50.850;4.504;2022-07-04T08:28:56;1.10;;;0.90;;
10191;SDS011;17580;50.850;4.504;2022-07-04T08:31:24;2.20;;;1.00;;
10191;SDS011;17580;50.850;4.504;2022-07-04T08:33:52;1.37;;;0.90;;
10191;SDS011;17580;50.850;4.504;2022-07-04T08:36:19;0.93;;;0.83;;
10191;SDS011;17580;50.850;4.504;2022-07-04T08:38:46;2.23;;;1.23;;
10191;SDS011;17580;50.850;4.504;2022-07-04T08:41:14;2.60;;;0.90;;
10191;SDS011;17580;50.850;4.504;2022-07-04T08:43:42;0.93;;;0.93;;
10191;SDS011;17580;50.850;4.504;2022-07-04T08:46:11;1.17;;;0.90;;
10191;SDS011;17580;50.850;4.504;2022-07-04T08:48:42;3.47;;;1.07;;
10191;SDS011;17580;50.850;4.504;2022-07-04T08:51:09;1.00;;;1.00;;
10191;SDS011;17580;50.850;4.504;2022-07-04T08:53:42;1.07;;;0.93;;
10191;SDS011;17580;50.850;4.504;2022-07-04T08:56:17;1.10;;;1.00;;
10191;SDS011;17580;50.850;4.504;2022-07-04T08:59:03;1.03;;;0.93;;
10191;SDS011;17580;50.850;4.504;2022-07-04T09:01:31;1.77;;;1.00;;
10191;SDS011;17580;50.850;4.504;2022-07-04T09:03:59;1.13;;;1.10;;
10191;SDS011;17580;50.850;4.504;2022-07-04T09:06:27;0.70;;;0.70;;
10191;SDS011;17580;50.850;4.504;2022-07-04T09:08:56;1.60;;;1.00;;
10191;SDS011;17580;50.850;4.504;2022-07-04T09:11:24;0.80;;;0.80;;
10191;SDS011;17580;50.850;4.504;2022-07-04T09:13:51;1.13;;;0.87;;
10191;SDS011;17580;50.850;4.504;2022-07-04T09:16:18;1.47;;;1.20;;
10191;SDS011;17580;50.850;4.504;2022-07-04T09:18:45;3.03;;;1.30;;
10191;SDS011;17580;50.850;4.504;2022-07-04T09:21:12;0.90;;;0.90;;
10191;SDS011;17580;50.850;4.504;2022-07-04T09:23:40;1.00;;;1.00;;
10191;SDS011;17580;50.850;4.504;2022-07-04T09:26:10;1.27;;;1.17;;
10191;SDS011;17580;50.850;4.504;2022-07-04T09:28:41;1.00;;;0.90;;
10191;SDS011;17580;50.850;4.504;2022-07-04T09:31:13;1.10;;;1.00;;
10191;SDS011;17580;50.850;4.504;2022-07-04T09:33:45;1.43;;;1.30;;
10191;SDS011;17580;50.850;4.504;2022-07-04T09:36:14;1.20;;;1.03;;
10191;SDS011;17580;50.850;4.504;2022-07-04T09:38:42;1.30;;;1.00;;
10191;SDS011;17580;50.850;4.504;2022-07-04T09:41:09;1.90;;;1.37;;
10191;SDS011;17580;50.850;4.504;2022-07-04T09:44:02;2.10;;;1.30;;
10191;SDS011;17580;50.850;4.504;2022-07-04T09:46:32;1.10;;;1.00;;
10191;SDS011;17580;50.850;4.504;2022-07-04T09:48:59;1.20;;;1.10;;
10191;SDS011;17580;50.850;4.504;2022-07-04T09:51:36;1.83;;;1.23;;
10191;SDS011;17580;50.850;4.504;2022-07-04T09:54:18;1.00;;;1.00;;
10191;SDS011;17580;50.850;4.504;2022-07-04T09:56:48;1.57;;;1.40;;
10191;SDS011;17580;50.850;4.504;2022-07-04T09:59:17;1.43;;;1.33;;
10191;SDS011;17580;50.850;4.504;2022-07-04T10:01:44;1.57;;;1.47;;
10191;SDS011;17580;50.850;4.504;2022-07-04T10:04:12;3.53;;;2.33;;
10191;SDS011;17580;50.850;4.504;2022-07-04T10:06:39;2.77;;;1.97;;
10191;SDS011;17580;50.850;4.504;2022-07-04T10:09:08;4.70;;;3.60;;
10191;SDS011;17580;50.850;4.504;2022-07-04T10:11:37;5.73;;;4.17;;
10191;SDS011;17580;50.850;4.504;2022-07-04T10:14:05;9.15;;;4.90;;
10191;SDS011;17580;50.850;4.504;2022-07-04T10:16:35;5.90;;;4.90;;
10191;SDS011;17580;50.850;4.504;2022-07-04T10:19:03;3.58;;;3.28;;
10191;SDS011;17580;50.850;4.504;2022-07-04T10:21:31;5.25;;;4.05;;
10191;SDS011;17580;50.850;4.504;2022-07-04T10:23:58;5.05;;;4.63;;
10191;SDS011;17580;50.850;4.504;2022-07-04T10:26:26;6.18;;;4.45;;
10191;SDS011;17580;50.850;4.504;2022-07-04T10:28:55;5.45;;;4.95;;
10191;SDS011;17580;50.850;4.504;2022-07-04T10:31:23;10.88;;;5.35;;
10191;SDS011;17580;50.850;4.504;2022-07-04T10:33:53;8.32;;;5.70;;
10191;SDS011;17580;50.850;4.504;2022-07-04T10:36:22;9.25;;;6.40;;
10191;SDS011;17580;50.850;4.504;2022-07-04T10:38:53;7.43;;;6.18;;
10191;SDS011;17580;50.850;4.504;2022-07-04T10:41:21;5.68;;;5.03;;
10191;SDS011;17580;50.850;4.504;2022-07-04T10:43:56;4.70;;;4.25;;
10191;SDS011;17580;50.850;4.504;2022-07-04T10:46:28;4.72;;;4.20;;
10191;SDS011;17580;50.850;4.504;2022-07-04T10:49:19;5.57;;;3.70;;
10191;SDS011;17580;50.850;4.504;2022-07-04T10:51:49;4.28;;;3.42;;
10191;SDS011;17580;50.850;4.504;2022-07-04T10:54:17;3.90;;;2.35;;
10191;SDS011;17580;50.850;4.504;2022-07-04T10:56:49;2.40;;;2.15;;
10191;SDS011;17580;50.850;4.504;2022-07-04T10:59:18;2.30;;;2.00;;
10191;SDS011;17580;50.850;4.504;2022-07-04T11:01:48;1.90;;;1.80;;
10191;SDS011;17580;50.850;4.504;2022-07-04T11:07:18;1.92;;;1.60;;
10191;SDS011;17580;50.850;4.504;2022-07-04T11:09:47;2.17;;;1.50;;
10191;SDS011;17580;50.850;4.504;2022-07-04T11:16:01;1.88;;;1.40;;
10191;SDS011;17580;50.850;4.504;2022-07-04T11:18:39;2.72;;;1.38;;
10191;SDS011;17580;50.850;4.504;2022-07-04T11:21:18;1.80;;;1.45;;
10191;SDS011;17580;50.850;4.504;2022-07-04T11:23:50;1.23;;;1.13;;
10191;SDS011;17580;50.850;4.504;2022-07-04T11:26:18;2.60;;;2.00;;
10191;SDS011;17580;50.850;4.504;2022-07-04T11:28:46;2.72;;;1.20;;
10191;SDS011;17580;50.850;4.504;2022-07-04T11:31:13;6.75;;;1.65;;
10191;SDS011;17580;50.850;4.504;2022-07-04T11:33:40;1.80;;;1.70;;
10191;SDS011;17580;50.850;4.504;2022-07-04T11:36:09;1.83;;;1.50;;
10191;SDS011;17580;50.850;4.504;2022-07-04T11:38:48;2.93;;;1.33;;
10191;SDS011;17580;50.850;4.504;2022-07-04T11:41:18;1.67;;;1.37;;
10191;SDS011;17580;50.850;4.504;2022-07-04T11:44:04;1.93;;;1.40;;
10191;SDS011;17580;50.850;4.504;2022-07-04T11:46:49;4.53;;;1.33;;
10191;SDS011;17580;50.850;4.504;2022-07-04T11:49:16;1.80;;;1.23;;
10191;SDS011;17580;50.850;4.504;2022-07-04T11:51:43;1.30;;;1.20;;
10191;SDS011;17580;50.850;4.504;2022-07-04T11:54:13;4.50;;;1.40;;
10191;SDS011;17580;50.850;4.504;2022-07-04T11:56:40;1.93;;;1.30;;
10191;SDS011;17580;50.850;4.504;2022-07-04T11:59:11;1.70;;;1.45;;
10191;SDS011;17580;50.850;4.504;2022-07-04T12:01:39;1.55;;;1.45;;
10191;SDS011;17580;50.850;4.504;2022-07-04T12:04:14;1.30;;;1.20;;
10191;SDS011;17580;50.850;4.504;2022-07-04T12:06:42;1.43;;;1.33;;
10191;SDS011;17580;50.850;4.504;2022-07-04T12:09:10;2.70;;;1.50;;
10191;SDS011;17580;50.850;4.504;2022-07-04T12:11:51;2.33;;;1.50;;
10191;SDS011;17580;50.850;4.504;2022-07-04T12:14:20;1.80;;;1.70;;
10191;SDS011;17580;50.850;4.504;2022-07-04T12:16:47;1.40;;;1.33;;
10191;SDS011;17580;50.850;4.504;2022-07-04T12:19:14;1.63;;;1.40;;
10191;SDS011;17580;50.850;4.504;2022-07-04T12:21:42;2.37;;;1.20;;
10191;SDS011;17580;50.850;4.504;2022-07-04T12:24:10;2.03;;;1.10;;
10191;SDS011;17580;50.850;4.504;2022-07-04T12:26:47;1.27;;;1.27;;
10191;SDS011;17580;50.850;4.504;2022-07-04T12:29:23;2.73;;;1.50;;
10191;SDS011;17580;50.850;4.504;2022-07-04T12:31:52;2.90;;;1.43;;
10191;SDS011;17580;50.850;4.504;2022-07-04T12:34:19;1.30;;;1.20;;
10191;SDS011;17580;50.850;4.504;2022-07-04T12:36:50;1.13;;;1.13;;
10191;SDS011;17580;50.850;4.504;2022-07-04T12:39:30;1.67;;;1.20;;
10191;SDS011;17580;50.850;4.504;2022-07-04T12:42:05;1.50;;;1.37;;
10191;SDS011;17580;50.850;4.504;2022-07-04T12:44:34;1.83;;;1.60;;
10191;SDS011;17580;50.850;4.504;2022-07-04T12:47:02;2.17;;;1.60;;
10191;SDS011;17580;50.850;4.504;2022-07-04T12:49:30;2.13;;;1.20;;
10191;SDS011;17580;50.850;4.504;2022-07-04T12:52:04;3.47;;;1.30;;
10191;SDS011;17580;50.850;4.504;2022-07-04T12:54:32;1.97;;;1.57;;
10191;SDS011;17580;50.850;4.504;2022-07-04T12:57:04;1.50;;;1.40;;
10191;SDS011;17580;50.850;4.504;2022-07-04T12:59:37;1.17;;;1.00;;
10191;SDS011;17580;50.850;4.504;2022-07-04T13:02:05;3.03;;;1.20;;
10191;SDS011;17580;50.850;4.504;2022-07-04T13:04:32;2.67;;;1.20;;
10191;SDS011;17580;50.850;4.504;2022-07-04T13:07:00;0.90;;;0.90;;
10191;SDS011;17580;50.850;4.504;2022-07-04T13:09:38;1.10;;;1.10;;
10191;SDS011;17580;50.850;4.504;2022-07-04T13:12:06;0.93;;;0.93;;
10191;SDS011;17580;50.850;4.504;2022-07-04T13:14:54;1.50;;;1.40;;
10191;SDS011;17580;50.850;4.504;2022-07-04T13:17:23;1.20;;;1.10;;
10191;SDS011;17580;50.850;4.504;2022-07-04T13:19:50;2.83;;;1.10;;
10191;SDS011;17580;50.850;4.504;2022-07-04T13:22:18;1.07;;;1.00;;
10191;SDS011;17580;50.850;4.504;2022-07-04T13:24:47;1.00;;;1.00;;
10191;SDS011;17580;50.850;4.504;2022-07-04T13:27:14;1.37;;;1.20;;
10191;SDS011;17580;50.850;4.504;2022-07-04T13:29:41;1.53;;;1.13;;
10191;SDS011;17580;50.850;4.504;2022-07-04T13:32:10;1.17;;;1.17;;
10191;SDS011;17580;50.850;4.504;2022-07-04T13:34:37;0.90;;;0.90;;
10191;SDS011;17580;50.850;4.504;2022-07-04T13:37:04;1.63;;;1.13;;
10191;SDS011;17580;50.850;4.504;2022-07-04T13:39:31;1.30;;;1.20;;
10191;SDS011;17580;50.850;4.504;2022-07-04T13:41:59;1.10;;;1.10;;
10191;SDS011;17580;50.850;4.504;2022-07-04T13:44:26;1.37;;;1.10;;
10191;SDS011;17580;50.850;4.504;2022-07-04T13:46:54;1.03;;;1.03;;
10191;SDS011;17580;50.850;4.504;2022-07-04T13:49:24;3.60;;;1.57;;
10191;SDS011;17580;50.850;4.504;2022-07-04T13:51:51;0.90;;;0.90;;
10191;SDS011;17580;50.850;4.504;2022-07-04T13:54:19;2.00;;;1.10;;
10191;SDS011;17580;50.850;4.504;2022-07-04T13:56:46;4.80;;;1.03;;
10191;SDS011;17580;50.850;4.504;2022-07-04T13:59:13;1.07;;;0.97;;
10191;SDS011;17580;50.850;4.504;2022-07-04T14:01:40;1.80;;;1.53;;
10191;SDS011;17580;50.850;4.504;2022-07-04T14:04:07;1.70;;;1.07;;
10191;SDS011;17580;50.850;4.504;2022-07-04T14:06:35;1.40;;;1.10;;
10191;SDS011;17580;50.850;4.504;2022-07-04T14:09:02;1.53;;;1.40;;
10191;SDS011;17580;50.850;4.504;2022-07-04T14:11:29;2.33;;;1.10;;
10191;SDS011;17580;50.850;4.504;2022-07-04T14:13:56;1.17;;;1.07;;
10191;SDS011;17580;50.850;4.504;2022-07-04T14:16:23;1.00;;;1.00;;
10191;SDS011;17580;50.850;4.504;2022-07-04T14:18:50;0.90;;;0.90;;
10191;SDS011;17580;50.850;4.504;2022-07-04T14:21:17;0.90;;;0.90;;
10191;SDS011;17580;50.850;4.504;2022-07-04T14:23:45;1.23;;;1.00;;
10191;SDS011;17580;50.850;4.504;2022-07-04T14:26:14;1.40;;;1.30;;
10191;SDS011;17580;50.850;4.504;2022-07-04T14:28:44;0.90;;;0.90;;
10191;SDS011;17580;50.850;4.504;2022-07-04T14:31:11;3.03;;;1.33;;
10191;SDS011;17580;50.850;4.504;2022-07-04T14:33:38;1.23;;;1.07;;
10191;SDS011;17580;50.850;4.504;2022-07-04T14:36:06;1.80;;;0.90;;
10191;SDS011;17580;50.850;4.504;2022-07-04T14:38:35;1.47;;;1.37;;
10191;SDS011;17580;50.850;4.504;2022-07-04T14:41:04;1.13;;;1.03;;
10191;SDS011;17580;50.850;4.504;2022-07-04T14:43:37;1.63;;;1.00;;
10191;SDS011;17580;50.850;4.504;2022-07-04T14:46:05;1.00;;;1.00;;
10191;SDS011;17580;50.850;4.504;2022-07-04T14:48:32;1.30;;;1.20;;
10191;SDS011;17580;50.850;4.504;2022-07-04T14:50:59;1.37;;;1.23;;
10191;SDS011;17580;50.850;4.504;2022-07-04T14:53:27;2.67;;;1.53;;
10191;SDS011;17580;50.850;4.504;2022-07-04T14:55:54;2.37;;;1.40;;
10191;SDS011;17580;50.850;4.504;2022-07-04T14:58:22;1.60;;;1.50;;
10191;SDS011;17580;50.850;4.504;2022-07-04T15:00:49;1.50;;;1.27;;
10191;SDS011;17580;50.850;4.504;2022-07-04T15:03:16;1.80;;;1.20;;